Time;durP1;ratioP1;P1;durP2;ratioP2;P2;SDS_P1;SDS_P2;PMS_P1;PMS_P2;Temp;Humidity;BMP_temperature;BMP_pressure;BME280_temperature;BME280_humidity;BME280_pressure;Samples;Min_cycle;Max_cycle;Signal;HPM_P1;HPM_P2
2022/12/04 00:00:30;;;;;;;23.60;21.60;;;;;;;7.48;67.38;99339.56;5068113;28;20067;-67
2022/12/04 00:02:57;;;;;;;23.47;21.50;;;;;;;7.45;67.48;99340.97;5072295;28;20056;-67
2022/12/04 00:05:24;;;;;;;22.23;20.60;;;;;;;7.46;67.89;99342.63;5055283;28;20045;-67
2022/12/04 00:07:51;;;;;;;22.70;20.63;;;;;;;7.41;67.93;99350.16;5073359;28;20271;-68
2022/12/04 00:10:18;;;;;;;24.10;22.07;;;;;;;7.37;68.24;99338.81;5071715;28;20044;-68
2022/12/04 00:12:44;;;;;;;23.03;21.00;;;;;;;7.33;68.35;99330.22;5073232;28;20544;-67
2022/12/04 00:15:11;;;;;;;29.40;24.57;;;;;;;7.40;68.05;99342.97;5071310;28;20052;-67
2022/12/04 00:17:54;;;;;;;22.13;20.57;;;;;;;7.31;68.31;99326.91;5065199;28;20461;-66
2022/12/04 00:20:22;;;;;;;25.73;23.07;;;;;;;7.44;67.90;99321.81;5071388;28;20054;-66
2022/12/04 00:22:49;;;;;;;22.00;20.00;;;;;;;7.45;67.61;99321.50;5067531;28;20445;-66
2022/12/04 00:25:16;;;;;;;19.40;18.07;;;;;;;7.56;67.62;99330.63;5068313;28;20052;-66
2022/12/04 00:27:42;;;;;;;23.57;21.40;;;;;;;7.53;67.64;99320.09;5070956;28;20052;-66
2022/12/04 00:30:10;;;;;;;20.33;18.77;;;;;;;7.67;67.50;99329.41;5069336;28;20048;-65
2022/12/04 00:32:36;;;;;;;43.30;40.50;;;;;;;7.60;67.49;99326.97;5066887;28;20118;-65
2022/12/04 00:35:03;;;;;;;26.77;21.70;;;;;;;7.76;67.00;99318.47;5070897;28;20051;-65
2022/12/04 00:37:32;;;;;;;33.50;24.87;;;;;;;7.89;66.69;99316.97;5068011;28;20060;-65
2022/12/04 00:39:58;;;;;;;18.87;17.57;;;;;;;7.83;66.57;99314.25;5067475;28;20052;-66
2022/12/04 00:42:27;;;;;;;19.10;18.00;;;;;;;7.79;66.70;99304.84;5069622;28;20052;-67
2022/12/04 00:44:53;;;;;;;20.53;19.03;;;;;;;7.79;66.80;99309.56;5067132;28;20048;-68
2022/12/04 00:47:20;;;;;;;23.33;21.20;;;;;;;7.75;66.70;99311.25;5071185;28;20124;-68
2022/12/04 00:49:47;;;;;;;19.70;17.70;;;;;;;7.73;66.83;99319.09;5068673;28;20052;-67
2022/12/04 00:52:14;;;;;;;23.30;21.33;;;;;;;7.67;67.10;99328.59;5071030;28;20050;-68
2022/12/04 00:54:41;;;;;;;31.77;29.47;;;;;;;7.74;66.98;99326.28;5066747;28;20051;-67
2022/12/04 00:57:08;;;;;;;27.50;24.90;;;;;;;7.82;66.84;99318.13;5054726;28;20071;-66
2022/12/04 00:59:36;;;;;;;28.93;26.30;;;;;;;7.89;66.54;99308.63;5072082;28;20443;-65
2022/12/04 01:02:03;;;;;;;25.47;22.93;;;;;;;8.00;66.30;99319.38;5067687;28;20113;-65
2022/12/04 01:04:30;;;;;;;24.17;21.90;;;;;;;8.04;66.29;99314.06;5065792;28;20048;-66
2022/12/04 01:06:57;;;;;;;19.67;18.23;;;;;;;8.02;66.03;99313.50;5070612;28;20426;-66
2022/12/04 01:09:31;;;;;;;21.40;19.87;;;;;;;8.02;66.33;99310.72;5070724;28;20498;-66
2022/12/04 01:11:58;;;;;;;18.37;17.13;;;;;;;7.94;66.18;99308.59;5067860;28;20495;-66
2022/12/04 01:14:25;;;;;;;20.90;19.03;;;;;;;7.92;66.38;99299.72;5070018;28;20040;-66
2022/12/04 01:16:51;;;;;;;23.53;21.23;;;;;;;7.95;66.32;99299.13;5064161;28;20059;-65
2022/12/04 01:19:19;;;;;;;22.20;19.87;;;;;;;8.00;66.25;99299.91;5089820;28;20518;-65
2022/12/04 01:21:45;;;;;;;28.37;25.43;;;;;;;8.01;66.12;99297.94;5089822;28;20048;-66
2022/12/04 01:24:12;;;;;;;22.53;20.70;;;;;;;8.04;66.19;99302.94;5084487;28;20044;-66
2022/12/04 01:26:39;;;;;;;18.73;17.50;;;;;;;8.08;66.27;99309.56;5091178;28;20486;-66
2022/12/04 01:29:06;;;;;;;21.13;19.53;;;;;;;8.06;66.15;99312.59;5090587;28;20414;-67
2022/12/04 01:31:33;;;;;;;25.83;23.60;;;;;;;8.13;66.05;99312.25;5088512;28;20303;-63
2022/12/04 01:34:00;;;;;;;27.83;25.37;;;;;;;8.19;65.74;99305.53;5092872;28;20410;-64
2022/12/04 01:36:27;;;;;;;36.53;33.57;;;;;;;8.28;65.61;99300.16;5090854;28;20055;-64
2022/12/04 01:38:55;;;;;;;25.97;23.47;;;;;;;8.31;65.39;99297.59;5090588;28;20044;-65
2022/12/04 01:41:25;;;;;;;23.37;21.33;;;;;;;8.25;65.67;99297.97;5089485;28;20055;-64
2022/12/04 01:44:34;;;;;;;22.98;20.73;;;;;;;8.20;65.85;99296.06;5084068;28;20529;-64
2022/12/04 01:47:01;;;;;;;21.10;19.53;;;;;;;8.12;66.40;99293.94;5080981;28;20052;-63
2022/12/04 01:49:43;;;;;;;22.40;20.67;;;;;;;8.07;66.37;99302.34;5091709;28;20701;-64
2022/12/04 01:52:15;;;;;;;20.53;19.07;;;;;;;8.10;66.31;99293.38;5090676;28;20133;-64
2022/12/04 01:54:46;;;;;;;24.80;22.60;;;;;;;8.07;66.40;99282.88;5084371;28;20059;-64
2022/12/04 01:57:15;;;;;;;26.53;23.83;;;;;;;8.17;66.37;99296.66;5090727;28;20402;-64
2022/12/04 01:59:47;;;;;;;26.67;24.30;;;;;;;8.21;66.26;99299.69;5093210;28;20056;-64
2022/12/04 02:02:18;;;;;;;19.63;18.37;;;;;;;8.21;66.16;99294.94;5087571;28;20055;-63
2022/12/04 02:04:45;;;;;;;22.10;20.27;;;;;;;8.26;65.99;99297.66;5089120;28;20039;-63
2022/12/04 02:07:12;;;;;;;32.17;30.20;;;;;;;8.26;66.00;99306.00;5085201;28;20052;-64
2022/12/04 02:09:41;;;;;;;22.60;20.50;;;;;;;8.34;65.89;99301.72;5090044;28;20130;-64
2022/12/04 02:12:14;;;;;;;22.27;20.57;;;;;;;8.33;65.75;99288.97;5086423;28;20044;-63
2022/12/04 02:15:04;;;;;;;22.47;20.43;;;;;;;8.26;65.81;99289.31;5090793;28;20052;-64
2022/12/04 02:18:06;;;;;;;22.73;21.05;;;;;;;8.17;65.94;99291.09;5065595;28;20053;-64
2022/12/04 02:20:39;;;;;;;20.17;18.83;;;;;;;8.20;65.84;99290.50;5051376;28;20040;-65
2022/12/04 02:23:35;;;;;;;20.90;19.37;;;;;;;8.21;65.88;99278.25;5065355;28;20063;-64
2022/12/04 02:26:30;;;;;;;20.80;19.00;;;;;;;8.26;65.72;99283.75;5065213;28;20045;-65
2022/12/04 02:29:19;;;;;;;24.20;21.80;;;;;;;8.29;65.82;99285.94;5066937;28;20067;-65
2022/12/04 02:32:03;;;;;;;21.97;19.97;;;;;;;8.34;65.68;99290.59;5064213;28;20062;-65
2022/12/04 02:34:46;;;;;;;18.20;17.07;;;;;;;8.30;65.81;99289.53;5047315;28;20059;-65
2022/12/04 02:37:19;;;;;;;20.70;19.40;;;;;;;8.25;65.85;99292.41;5065150;28;20049;-66
2022/12/04 02:40:02;;;;;;;20.90;19.30;;;;;;;8.18;66.13;99286.38;5067110;28;20127;-65
2022/12/04 02:42:42;;;;;;;27.63;25.03;;;;;;;8.35;65.96;99297.03;5061139;28;20049;-66
2022/12/04 02:45:13;;;;;;;26.98;24.52;;;;;;;8.34;65.94;99295.34;5065406;28;20045;-65
2022/12/04 02:47:43;;;;;;;26.93;24.33;;;;;;;8.52;65.64;99308.53;5063336;28;20049;-66
2022/12/04 02:50:16;;;;;;;24.45;22.20;;;;;;;8.57;65.27;99308.44;5069751;28;20044;-65
2022/12/04 02:52:52;;;;;;;25.27;22.70;;;;;;;8.60;65.25;99312.59;5067743;28;20048;-65
2022/12/04 02:55:26;;;;;;;24.67;22.40;;;;;;;8.62;65.21;99297.25;5062553;28;20048;-66
2022/12/04 02:58:00;;;;;;;22.90;20.50;;;;;;;8.64;64.79;99300.56;5070994;28;20051;-65
2022/12/04 03:00:29;;;;;;;21.60;19.87;;;;;;;8.64;65.20;99297.78;5064804;28;20048;-65
2022/12/04 03:03:04;;;;;;;20.40;18.77;;;;;;;8.55;65.30;99294.00;5066005;28;20057;-65
2022/12/04 03:05:40;;;;;;;24.97;22.37;;;;;;;8.63;65.01;99298.91;5069747;28;20047;-65
2022/12/04 03:08:15;;;;;;;24.37;21.67;;;;;;;8.66;65.06;99298.31;5064786;28;20150;-65
2022/12/04 03:10:48;;;;;;;21.53;19.93;;;;;;;8.61;65.13;99291.97;5067465;28;20534;-66
2022/12/04 03:13:28;;;;;;;19.67;18.43;;;;;;;8.50;65.34;99294.06;5066003;28;20041;-65
2022/12/04 03:16:04;;;;;;;19.67;18.33;;;;;;;8.48;65.87;99294.38;5059157;28;20036;-65
2022/12/04 03:18:38;;;;;;;26.10;23.70;;;;;;;8.51;65.73;99292.94;5066177;28;20064;-66
2022/12/04 03:21:18;;;;;;;25.77;23.13;;;;;;;8.52;65.67;99291.81;5059133;28;20041;-65
2022/12/04 03:23:51;;;;;;;27.55;24.85;;;;;;;8.63;65.49;99298.91;5066401;28;20048;-64
2022/12/04 03:26:20;;;;;;;27.80;24.80;;;;;;;8.75;65.43;99296.53;5064417;28;20047;-65
2022/12/04 03:28:53;;;;;;;23.73;21.50;;;;;;;8.69;65.36;99291.34;5068824;28;20053;-65
2022/12/04 03:31:30;;;;;;;23.03;20.80;;;;;;;8.66;65.40;99287.19;5063471;28;20045;-65
2022/12/04 03:34:04;;;;;;;25.03;22.73;;;;;;;8.50;65.21;99278.19;5064294;28;20414;-65
2022/12/04 03:36:40;;;;;;;23.33;21.30;;;;;;;8.67;65.50;99294.41;5069072;28;20047;-66
2022/12/04 03:39:30;;;;;;;25.97;23.60;;;;;;;8.54;65.50;99284.81;5063998;28;20052;-65
2022/12/04 03:42:19;;;;;;;20.42;18.98;;;;;;;8.57;65.81;99290.94;5065818;28;20419;-65
2022/12/04 03:45:07;;;;;;;24.60;22.53;;;;;;;8.57;65.74;99288.97;5070722;28;20037;-65
2022/12/04 03:47:55;;;;;;;23.77;21.77;;;;;;;8.52;65.41;99280.69;5067454;28;20136;-65
2022/12/04 03:50:41;;;;;;;25.87;23.37;;;;;;;8.62;65.50;99283.34;5067576;28;20530;-65
2022/12/04 03:53:16;;;;;;;30.97;28.53;;;;;;;8.65;65.75;99288.31;5062620;28;20044;-65
2022/12/04 03:55:55;;;;;;;24.17;21.77;;;;;;;8.67;65.48;99266.56;5065313;28;20406;-65
2022/12/04 03:58:28;;;;;;;27.63;25.00;;;;;;;8.77;65.17;99265.59;5070112;28;20191;-66
2022/12/04 04:00:57;;;;;;;27.27;24.90;;;;;;;8.93;65.24;99269.81;5056003;28;20427;-66
2022/12/04 04:03:32;;;;;;;25.40;23.20;;;;;;;9.05;64.90;99269.34;5071133;28;20041;-65
2022/12/04 04:06:04;;;;;;;23.10;21.03;;;;;;;9.12;64.72;99261.44;5072849;28;20052;-65
2022/12/04 04:08:38;;;;;;;25.30;22.80;;;;;;;9.07;64.57;99255.97;5069134;28;20056;-65
2022/12/04 04:11:12;;;;;;;25.07;22.60;;;;;;;9.10;64.44;99260.13;5047442;28;20044;-65
2022/12/04 04:25:08;;;;;;;25.37;22.87;;;;;;;8.43;66.83;99263.81;5060989;28;20136;-65
2022/12/04 04:27:35;;;;;;;20.47;18.53;;;;;;;8.29;66.96;99238.66;5073754;28;20051;-65
2022/12/04 04:30:04;;;;;;;23.80;21.53;;;;;;;8.43;67.24;99265.78;5073112;28;20048;-65
2022/12/04 04:32:42;;;;;;;20.67;18.93;;;;;;;8.43;67.44;99257.44;5054443;28;20045;-64
2022/12/04 04:35:15;;;;;;;22.27;19.87;;;;;;;8.42;67.36;99264.13;5070423;28;20036;-64
2022/12/04 04:38:04;;;;;;;20.13;18.63;;;;;;;8.30;67.97;99257.00;5073165;28;20040;-64
2022/12/04 04:40:43;;;;;;;20.40;18.63;;;;;;;8.32;68.00;99263.09;5072175;28;20048;-64
2022/12/04 04:43:34;;;;;;;19.80;18.30;;;;;;;8.27;68.14;99265.09;5073587;28;20040;-65
2022/12/04 04:46:09;;;;;;;19.03;17.40;;;;;;;8.20;68.53;99251.56;5051458;28;20505;-64
2022/12/04 04:48:40;;;;;;;17.70;16.67;;;;;;;8.25;68.82;99268.19;5043147;28;20059;-66
2022/12/04 04:51:10;;;;;;;20.93;19.20;;;;;;;8.23;68.42;99250.97;5072843;28;20052;-67
2022/12/04 04:54:03;;;;;;;;;;;;;;;8.06;69.55;99270.09;5073710;28;20403;-67
2022/12/04 04:56:30;;;;;;;21.97;19.87;;;;;;;8.21;69.06;99255.19;5051939;28;19920;-67
2022/12/04 04:58:57;;;;;;;19.77;18.33;;;;;;;8.30;68.91;99268.13;5073841;28;20045;-67
2022/12/04 05:01:27;;;;;;;19.20;17.80;;;;;;;8.32;68.85;99257.53;5072402;28;20044;-67
2022/12/04 05:03:54;;;;;;;;;;;;;;;8.16;69.40;99283.88;5072368;28;20048;-67
2022/12/04 05:06:21;;;;;;;20.33;18.83;;;;;;;8.28;68.99;99272.34;5046205;28;19968;-67
2022/12/04 05:08:48;;;;;;;22.47;20.47;;;;;;;8.46;68.78;99279.09;5073009;28;20119;-67
2022/12/04 05:11:16;;;;;;;19.10;17.60;;;;;;;8.48;68.40;99277.69;5073028;28;20059;-67
2022/12/04 05:13:44;;;;;;;18.97;17.77;;;;;;;8.49;68.45;99275.72;5069398;28;20040;-67
2022/12/04 05:16:13;;;;;;;18.77;17.33;;;;;;;8.56;68.24;99275.38;5072118;28;20059;-66
2022/12/04 05:19:52;;;;;;;17.05;15.93;;;;;;;8.60;68.23;99279.19;5070519;28;20044;-65
2022/12/04 05:21:31;;;;;;;;;;;;;;;8.35;68.62;99285.91;5070265;28;20052;-64
2022/12/04 05:23:58;;;;;;;16.33;15.43;;;;;;;8.50;68.22;99280.16;5061291;28;20327;-64
2022/12/04 05:26:25;;;;;;;18.70;17.47;;;;;;;8.56;68.21;99281.75;5072541;28;20040;-64
2022/12/04 05:28:52;;;;;;;20.77;19.20;;;;;;;8.53;68.08;99272.03;5055593;28;20059;-64
2022/12/04 05:31:19;;;;;;;22.93;21.23;;;;;;;8.62;68.05;99276.97;5071202;28;20049;-64
2022/12/04 05:33:46;;;;;;;19.80;18.10;;;;;;;8.55;67.95;99274.53;5072441;28;20174;-64
2022/12/04 05:36:12;;;;;;;18.47;17.07;;;;;;;8.54;68.30;99284.00;5072050;28;20514;-64
2022/12/04 05:38:39;;;;;;;19.07;17.57;;;;;;;8.41;68.81;99285.56;5053070;28;20407;-64
2022/12/04 05:41:06;;;;;;;21.33;20.03;;;;;;;8.25;68.94;99279.31;5070357;28;20048;-64
2022/12/04 05:43:34;;;;;;;18.40;17.10;;;;;;;8.20;69.20;99276.59;5071910;28;20052;-64
2022/12/04 05:46:03;;;;;;;28.40;26.50;;;;;;;8.13;69.39;99278.91;5071987;28;20040;-64
2022/12/04 05:48:30;;;;;;;17.80;16.47;;;;;;;8.15;69.53;99282.22;5071505;28;20044;-64
2022/12/04 05:50:57;;;;;;;19.53;18.00;;;;;;;8.06;69.45;99262.56;5071269;28;20105;-64
2022/12/04 05:53:24;;;;;;;22.13;20.13;;;;;;;8.14;69.34;99274.19;5057466;28;20049;-65
2022/12/04 05:55:59;;;;;;;17.07;15.97;;;;;;;8.26;69.40;99285.72;5063804;28;20036;-67
2022/12/04 05:58:26;;;;;;;23.03;21.23;;;;;;;8.31;69.43;99285.66;5071268;28;20143;-67
2022/12/04 06:00:54;;;;;;;21.00;19.63;;;;;;;8.25;69.65;99293.22;5070813;28;20048;-67
2022/12/04 06:03:21;;;;;;;22.03;20.63;;;;;;;7.93;71.00;99284.69;5072394;28;20471;-67
2022/12/04 06:05:48;;;;;;;19.60;18.60;;;;;;;7.71;72.20;99286.00;5071123;28;20044;-67
2022/12/04 06:08:15;;;;;;;25.23;23.43;;;;;;;7.68;72.73;99299.66;5051574;28;20119;-66
2022/12/04 06:10:42;;;;;;;28.07;25.77;;;;;;;7.60;72.96;99298.34;5070139;28;20080;-67
2022/12/04 06:13:08;;;;;;;26.40;24.50;;;;;;;7.61;73.12;99294.44;5072259;28;20048;-67
2022/12/04 06:15:39;;;;;;;25.97;23.93;;;;;;;7.62;73.39;99296.09;5037498;28;20044;-67
2022/12/04 06:18:06;;;;;;;23.03;21.67;;;;;;;7.63;73.96;99303.31;5066340;28;20056;-66
2022/12/04 06:20:33;;;;;;;22.97;21.37;;;;;;;7.63;73.96;99295.00;5067634;28;20055;-67
2022/12/04 06:23:00;;;;;;;24.87;22.83;;;;;;;7.69;74.29;99304.94;5070705;28;20048;-67
2022/12/04 06:25:27;;;;;;;27.47;25.33;;;;;;;7.75;74.16;99306.53;5070820;28;20052;-68
2022/12/04 06:27:54;;;;;;;26.93;24.77;;;;;;;7.76;74.46;99305.44;5072023;28;20475;-68
2022/12/04 06:30:21;;;;;;;29.07;26.57;;;;;;;7.82;74.61;99308.97;5071129;28;20048;-68
2022/12/04 06:32:48;;;;;;;23.53;22.03;;;;;;;7.79;74.82;99312.34;5071806;28;20048;-67
2022/12/04 06:35:15;;;;;;;23.10;21.37;;;;;;;7.83;74.96;99310.66;5071071;28;20044;-67
2022/12/04 06:37:42;;;;;;;22.67;21.07;;;;;;;7.78;74.89;99300.41;5060780;28;20051;-66
2022/12/04 06:40:09;;;;;;;27.97;25.50;;;;;;;7.91;74.85;99309.19;5071585;28;20048;-63
2022/12/04 06:42:36;;;;;;;26.10;24.03;;;;;;;7.92;74.84;99305.28;5071796;28;20044;-64
2022/12/04 06:45:04;;;;;;;25.73;23.63;;;;;;;8.01;74.94;99314.63;5070177;28;20179;-64
2022/12/04 06:47:32;;;;;;;23.67;22.33;;;;;;;7.92;74.84;99299.72;5061165;28;20103;-64
2022/12/04 06:49:59;;;;;;;26.93;24.80;;;;;;;8.00;74.98;99313.81;5058087;28;20052;-62
2022/12/04 06:52:26;;;;;;;28.50;26.40;;;;;;;8.07;75.03;99313.47;5065545;28;20057;-64
2022/12/04 06:54:53;;;;;;;29.90;27.50;;;;;;;8.05;74.94;99315.69;5070037;28;20054;-63
2022/12/04 06:57:19;;;;;;;26.80;24.60;;;;;;;8.05;75.28;99315.69;5068789;28;20044;-63
2022/12/04 06:59:46;;;;;;;29.57;27.17;;;;;;;8.13;75.33;99323.38;5070783;28;20131;-63
2022/12/04 07:02:13;;;;;;;50.47;47.00;;;;;;;8.13;75.27;99315.03;5071155;28;20063;-63
2022/12/04 07:04:40;;;;;;;28.83;26.63;;;;;;;8.22;75.16;99337.50;5069810;28;20058;-63
2022/12/04 07:07:08;;;;;;;27.10;25.00;;;;;;;8.25;75.36;99334.13;5071305;28;20049;-63
2022/12/04 07:09:35;;;;;;;25.57;23.80;;;;;;;8.26;75.36;99324.66;5045536;28;20052;-64
2022/12/04 07:12:02;;;;;;;27.93;25.60;;;;;;;8.29;75.46;99326.84;5072165;28;20041;-64
2022/12/04 07:14:29;;;;;;;30.30;27.73;;;;;;;8.38;75.51;99329.84;5073882;28;20115;-65
2022/12/04 07:16:57;;;;;;;27.97;25.63;;;;;;;8.36;75.44;99324.53;5073998;28;20454;-64
2022/12/04 07:19:24;;;;;;;28.07;25.80;;;;;;;8.34;75.56;99329.53;5071125;28;20395;-65
2022/12/04 07:21:51;;;;;;;30.80;28.30;;;;;;;8.36;75.54;99326.50;5074324;28;20052;-65
2022/12/04 07:24:17;;;;;;;26.57;24.27;;;;;;;8.40;75.57;99349.81;5055887;28;20047;-66
2022/12/04 07:26:45;;;;;;;24.67;23.03;;;;;;;8.35;75.87;99347.09;5073583;28;20044;-65
2022/12/04 07:29:12;;;;;;;27.77;25.67;;;;;;;8.31;75.82;99342.13;5073005;28;20062;-65
2022/12/04 07:31:39;;;;;;;28.80;26.47;;;;;;;8.34;75.80;99335.09;5053409;28;20048;-64
2022/12/04 07:34:06;;;;;;;27.47;25.37;;;;;;;8.27;75.54;99340.19;5071142;28;20055;-66
2022/12/04 07:36:33;;;;;;;25.80;24.10;;;;;;;8.29;76.02;99344.34;5072344;28;20049;-64
2022/12/04 07:39:00;;;;;;;30.17;27.70;;;;;;;8.27;76.02;99341.06;5063599;28;20052;-64
2022/12/04 07:41:27;;;;;;;26.97;25.30;;;;;;;8.23;76.31;99351.09;5056898;28;20522;-63
2022/12/04 07:43:53;;;;;;;30.33;27.63;;;;;;;8.26;76.37;99356.06;5072734;28;20059;-63
2022/12/04 07:46:23;;;;;;;26.77;24.87;;;;;;;8.28;76.32;99356.59;5071770;28;20559;-63
2022/12/04 07:48:50;;;;;;;27.77;25.70;;;;;;;8.19;76.61;99347.25;5070980;28;20048;-63
2022/12/04 07:51:22;;;;;;;27.37;25.67;;;;;;;8.30;76.67;99353.53;5069766;28;20509;-64
2022/12/04 07:53:52;;;;;;;23.13;21.77;;;;;;;8.29;76.77;99358.25;5074553;28;20051;-63
2022/12/04 07:56:19;;;;;;;29.27;27.27;;;;;;;8.36;76.92;99357.09;5045173;28;20124;-63
2022/12/04 07:58:46;;;;;;;29.80;27.70;;;;;;;8.39;76.92;99365.69;5054947;28;20056;-63
2022/12/04 08:01:14;;;;;;;24.87;23.27;;;;;;;8.42;77.05;99364.28;5068358;28;20053;-67
2022/12/04 08:03:43;;;;;;;30.37;28.30;;;;;;;8.45;77.29;99363.69;5073556;28;20090;-66
2022/12/04 08:06:16;;;;;;;47.17;44.43;;;;;;;8.48;77.06;99363.09;5064189;28;20520;-64
2022/12/04 08:08:43;;;;;;;27.70;25.93;;;;;;;8.52;77.18;99366.94;5072137;28;20090;-63
2022/12/04 08:11:12;;;;;;;27.90;25.60;;;;;;;8.58;77.10;99362.13;5072157;28;20044;-67
2022/12/04 08:13:39;;;;;;;30.70;28.55;;;;;;;8.63;76.79;99360.13;5070177;28;20048;-63
2022/12/04 08:16:09;;;;;;;40.57;37.80;;;;;;;8.80;76.93;99372.75;5037967;28;20049;-64
2022/12/04 08:18:37;;;;;;;27.40;25.17;;;;;;;8.86;76.94;99374.34;5065376;28;20148;-64
2022/12/04 08:21:10;;;;;;;28.90;26.50;;;;;;;8.79;76.91;99363.56;5071453;28;20082;-64
2022/12/04 08:23:39;;;;;;;27.37;25.20;;;;;;;9.00;77.07;99369.69;5070821;28;20110;-64
2022/12/04 08:26:06;;;;;;;27.33;24.93;;;;;;;9.32;77.07;99387.63;5071578;28;20049;-64
2022/12/04 08:28:34;;;;;;;28.10;26.10;;;;;;;9.47;77.20;99396.59;5073329;28;20131;-64
2022/12/04 08:31:06;;;;;;;27.63;25.37;;;;;;;9.61;77.07;99393.88;5055387;28;20044;-64
2022/12/04 08:33:33;;;;;;;27.50;25.23;;;;;;;9.71;76.99;99390.94;5071620;28;20138;-65
2022/12/04 08:36:00;;;;;;;26.93;24.63;;;;;;;9.80;77.09;99387.44;5073167;28;20060;-65
2022/12/04 08:38:28;;;;;;;27.87;25.57;;;;;;;9.91;76.81;99388.91;5071245;28;20495;-65
2022/12/04 08:41:02;;;;;;;41.27;38.67;;;;;;;9.89;76.93;99391.19;5071266;28;20048;-65
2022/12/04 08:43:29;;;;;;;32.63;30.33;;;;;;;10.04;76.72;99402.09;5061611;28;20495;-65
2022/12/04 08:46:00;;;;;;;25.87;23.77;;;;;;;10.09;76.80;99388.06;5065838;28;20060;-64
2022/12/04 08:48:28;;;;;;;27.40;25.23;;;;;;;10.25;76.72;99413.72;5071267;28;20063;-64
2022/12/04 08:50:55;;;;;;;27.20;25.03;;;;;;;10.27;76.50;99402.28;5073477;28;20059;-65
2022/12/04 08:53:23;;;;;;;25.83;24.03;;;;;;;10.35;76.68;99407.16;5071790;28;20052;-64
2022/12/04 08:55:50;;;;;;;25.80;23.70;;;;;;;10.41;76.44;99414.31;5056828;28;20227;-64
2022/12/04 08:58:18;;;;;;;25.43;23.53;;;;;;;10.51;76.37;99414.13;5070535;28;20104;-63
2022/12/04 09:00:46;;;;;;;26.60;24.70;;;;;;;10.78;76.65;99410.53;5070496;28;20502;-65
2022/12/04 09:03:18;;;;;;;25.23;23.27;;;;;;;10.98;76.53;99412.06;5070895;28;20505;-65
2022/12/04 09:05:45;;;;;;;25.60;23.60;;;;;;;11.60;77.63;99412.38;5070512;28;20048;-67
2022/12/04 09:08:13;;;;;;;24.70;22.90;;;;;;;12.41;77.01;99419.94;5053805;28;20060;-67
2022/12/04 09:10:41;;;;;;;23.20;21.60;;;;;;;12.71;76.03;99426.66;5070460;28;20423;-66
2022/12/04 09:13:08;;;;;;;24.20;22.40;;;;;;;12.90;75.33;99425.59;5066824;28;20056;-66
2022/12/04 09:15:38;;;;;;;23.30;21.67;;;;;;;12.94;74.46;99427.41;5042754;28;20053;-67
2022/12/04 09:18:06;;;;;;;25.23;23.43;;;;;;;12.89;74.60;99435.97;5066243;28;20056;-66
2022/12/04 09:20:33;;;;;;;32.83;30.73;;;;;;;12.78;73.78;99438.22;5068954;28;20055;-66
2022/12/04 09:23:01;;;;;;;29.30;27.37;;;;;;;12.71;73.75;99440.66;5072038;28;20163;-68
2022/12/04 09:25:31;;;;;;;23.25;21.50;;;;;;;12.63;73.43;99444.25;5054364;28;20056;-69
2022/12/04 09:27:58;;;;;;;24.53;22.83;;;;;;;12.52;72.91;99440.91;5072877;28;20053;-68
2022/12/04 09:30:24;;;;;;;22.13;20.40;;;;;;;12.37;73.11;99440.47;5054766;28;20052;-69
2022/12/04 09:32:51;;;;;;;32.03;29.97;;;;;;;12.18;73.22;99444.31;5070810;28;20202;-66
2022/12/04 09:35:18;;;;;;;23.63;21.77;;;;;;;12.47;73.19;99446.63;5060408;28;20049;-66
2022/12/04 09:37:45;;;;;;;27.10;25.47;;;;;;;12.38;71.53;99448.56;5064563;28;20059;-66
2022/12/04 09:40:33;;;;;;;22.43;20.77;;;;;;;11.91;71.12;99439.66;5072330;28;20049;-65
2022/12/04 09:43:53;;;;;;;18.80;17.90;;;;;;;11.42;71.04;99449.69;5072404;28;20494;-65
2022/12/04 09:46:34;;;;;;;23.17;21.37;;;;;;;11.79;73.28;99451.34;5041365;28;20059;-65
2022/12/04 09:49:09;;;;;;;22.07;20.63;;;;;;;12.59;72.02;99445.22;5054950;28;20072;-65
2022/12/04 09:51:39;;;;;;;26.47;24.60;;;;;;;13.20;71.23;99451.91;5054796;28;20063;-65
2022/12/04 09:54:16;;;;;;;25.17;23.47;;;;;;;12.54;70.12;99446.97;5072542;28;20422;-65
2022/12/04 09:56:49;;;;;;;22.53;21.03;;;;;;;11.79;70.07;99451.34;5070489;28;20048;-65
2022/12/04 09:59:22;;;;;;;37.27;35.30;;;;;;;11.60;71.83;99454.31;5072684;28;20445;-65
2022/12/04 10:02:17;;;;;;;26.17;24.27;;;;;;;12.16;76.38;99466.16;5072547;28;20060;-65
2022/12/04 10:04:44;;;;;;;23.20;21.93;;;;;;;13.36;78.38;99474.75;5053732;28;20053;-64
2022/12/04 10:07:21;;;;;;;25.63;23.37;;;;;;;14.17;77.95;99457.34;5054413;28;20044;-65
2022/12/04 10:09:58;;;;;;;23.70;22.10;;;;;;;15.03;78.34;99444.28;5071299;28;20060;-65
2022/12/04 10:12:51;;;;;;;22.98;21.38;;;;;;;16.00;74.37;99461.09;5055620;28;20415;-65
2022/12/04 10:15:48;;;;;;;22.73;21.15;;;;;;;15.57;66.78;99475.44;5073522;28;20053;-65
2022/12/04 10:18:51;;;;;;;24.50;22.80;;;;;;;15.77;68.81;99473.84;5073027;28;20059;-66
2022/12/04 10:21:27;;;;;;;23.17;21.58;;;;;;;16.06;69.13;99475.78;5073092;28;20135;-66
2022/12/04 10:24:10;;;;;;;22.65;21.05;;;;;;;16.52;71.44;99482.34;5072914;28;20057;-66
2022/12/04 10:26:43;;;;;;;21.85;20.35;;;;;;;16.64;65.61;99479.53;5073265;28;20049;-66
2022/12/04 10:29:23;;;;;;;20.20;18.88;;;;;;;16.20;65.69;99487.56;5073028;28;20052;-66
2022/12/04 10:31:53;;;;;;;20.23;18.95;;;;;;;15.44;65.52;99477.31;5073030;28;20063;-66
2022/12/04 10:34:25;;;;;;;20.77;19.08;;;;;;;14.78;66.00;99482.56;5072819;28;20048;-65
2022/12/04 10:36:54;;;;;;;19.65;18.17;;;;;;;14.85;68.16;99486.50;5055354;28;20052;-65
2022/12/04 10:39:33;;;;;;;21.48;19.77;;;;;;;15.30;69.91;99480.38;5072790;28;20055;-66
2022/12/04 10:42:36;;;;;;;21.33;19.70;;;;;;;15.13;67.42;99497.31;5056052;28;20049;-66
2022/12/04 10:45:05;;;;;;;17.92;17.02;;;;;;;14.50;67.82;99491.38;5060562;28;20396;-66
2022/12/04 10:47:33;;;;;;;19.02;17.98;;;;;;;14.49;70.45;99489.69;5073059;28;20048;-66
2022/12/04 10:50:15;;;;;;;20.20;18.90;;;;;;;14.43;66.28;99483.41;5072440;28;20079;-66
2022/12/04 10:52:41;;;;;;;20.48;19.23;;;;;;;14.31;69.59;99474.84;5072643;28;20051;-65
2022/12/04 10:55:09;;;;;;;21.23;20.13;;;;;;;15.49;73.48;99482.75;5072580;28;20052;-67
2022/12/04 10:57:45;;;;;;;20.63;19.33;;;;;;;15.76;66.66;99477.81;5072607;28;20044;-65
2022/12/04 11:00:29;;;;;;;18.02;17.10;;;;;;;15.62;68.91;99462.00;5072517;28;20059;-66
2022/12/04 11:02:59;;;;;;;21.55;20.25;;;;;;;14.83;65.94;99486.00;5054825;28;20049;-66
2022/12/04 11:05:29;;;;;;;20.02;18.95;;;;;;;15.23;68.06;99476.44;5072913;28;20048;-68
2022/12/04 11:07:57;;;;;;;20.70;19.15;;;;;;;16.05;70.16;99482.56;5072602;28;20052;-66
2022/12/04 11:10:42;;;;;;;20.02;18.80;;;;;;;16.19;68.47;99485.94;5072461;28;20103;-66
2022/12/04 11:13:09;;;;;;;35.25;33.50;;;;;;;16.52;69.76;99482.34;5072614;28;20056;-66
2022/12/04 11:16:03;;;;;;;20.35;18.90;;;;;;;16.73;68.34;99480.28;5072444;28;20052;-66
2022/12/04 11:18:32;;;;;;;20.70;19.20;;;;;;;16.15;65.53;99476.53;5068733;28;20140;-66
2022/12/04 11:21:00;;;;;;;21.45;19.77;;;;;;;15.64;67.18;99484.16;5072472;28;20049;-66
2022/12/04 11:23:45;;;;;;;26.13;24.38;;;;;;;15.43;69.67;99475.69;5072400;28;20485;-66
2022/12/04 11:26:12;;;;;;;20.23;18.63;;;;;;;15.33;69.58;99465.63;5072358;28;20075;-66
2022/12/04 11:28:53;;;;;;;21.15;19.83;;;;;;;14.63;67.18;99470.69;5072584;28;20072;-66
2022/12/04 11:31:21;;;;;;;21.63;20.02;;;;;;;14.64;71.38;99465.91;5072400;28;20083;-66
2022/12/04 11:33:51;;;;;;;22.02;20.48;;;;;;;14.84;71.44;99479.25;5036864;28;20567;-65
2022/12/04 11:36:31;;;;;;;20.40;19.17;;;;;;;15.17;72.11;99473.81;5052242;28;20061;-65
2022/12/04 11:39:03;;;;;;;;;;;;;;;14.90;71.65;99466.63;5052893;28;20045;-65
2022/12/04 11:41:31;;;;;;;20.60;19.08;;;;;;;14.97;70.84;99462.47;5062701;28;19920;-66
2022/12/04 11:43:59;;;;;;;26.38;24.75;;;;;;;14.76;71.17;99463.22;5072483;28;20049;-66
2022/12/04 11:46:32;;;;;;;19.67;18.20;;;;;;;14.32;69.70;99465.25;5072254;28;20059;-66
2022/12/04 11:49:02;;;;;;;19.87;18.57;;;;;;;14.18;71.76;99470.22;5072269;28;20052;-66
2022/12/04 11:51:57;;;;;;;22.00;20.70;;;;;;;13.86;72.07;99469.56;5072122;28;20048;-66
2022/12/04 11:54:53;;;;;;;22.03;20.03;;;;;;;13.74;73.12;99469.38;5068553;28;20055;-65
2022/12/04 11:57:41;;;;;;;20.23;18.73;;;;;;;13.52;73.63;99471.16;5010094;28;20045;-66